createdAt,value
2018-03-25T00:00:04.835Z,947.13
2018-03-25T00:15:05.261Z,947.34
2018-03-25T00:30:05.037Z,947.26
2018-03-25T00:45:05.302Z,947.74
2018-03-25T01:00:04.749Z,948.2
2018-03-25T01:15:05.171Z,948.2
2018-03-25T01:30:05.021Z,948.33
2018-03-25T01:45:04.555Z,948.54
2018-03-25T02:00:04.430Z,948.87
2018-03-25T02:15:04.501Z,949.05
2018-03-25T02:30:04.618Z,949.19
2018-03-25T02:45:05.185Z,949.37
2018-03-25T03:00:04.687Z,949.45
2018-03-25T03:15:04.627Z,949.16
2018-03-25T03:30:04.784Z,949.53
2018-03-25T03:45:05.237Z,949.35
2018-03-25T04:00:04.600Z,949.16
2018-03-25T04:15:04.611Z,949.45
2018-03-25T04:30:04.450Z,949.45
2018-03-25T04:45:04.823Z,949.88
2018-03-25T05:00:04.961Z,949.8
2018-03-25T05:15:04.460Z,949.78
2018-03-25T05:30:05.113Z,949.88
2018-03-25T05:45:05.048Z,950.23
2018-03-25T06:00:05.021Z,950.26
2018-03-25T06:15:04.939Z,950.02
2018-03-25T06:30:04.623Z,949.08
2018-03-25T06:45:04.979Z,948.76
2018-03-25T07:00:04.423Z,954.15
2018-03-25T07:15:04.811Z,951.05
2018-03-25T07:30:04.392Z,948.11
2018-03-25T07:45:04.811Z,952.74
2018-03-25T08:00:05.221Z,953.23
2018-03-25T08:15:05.248Z,953.95
2018-03-25T08:30:04.453Z,949.42
2018-03-25T08:45:04.850Z,949.83
2018-03-25T09:00:05.319Z,947.84
2018-03-25T09:15:05.276Z,950.11
2018-03-25T09:30:04.952Z,952.54
2018-03-25T09:45:04.964Z,949.5
2018-03-25T10:00:04.373Z,953.23
2018-03-25T10:15:05.285Z,948.66
2018-03-25T10:30:04.393Z,950.07
2018-03-25T10:45:04.959Z,950.64
2018-03-25T11:00:04.424Z,950.78
2018-03-25T11:15:04.392Z,950.91
2018-03-25T11:30:05.229Z,951.24
2018-03-25T11:45:04.902Z,951.16
2018-03-25T12:00:04.391Z,951.59
2018-03-25T12:15:04.407Z,950.51
2018-03-25T12:30:05.006Z,950.37
2018-03-25T12:45:04.936Z,950.26
2018-03-25T13:00:04.458Z,950.64
2018-03-25T13:15:04.980Z,950.32
2018-03-25T13:30:05.133Z,949.94
2018-03-25T13:45:04.948Z,950.23
2018-03-25T14:00:04.441Z,950.34
2018-03-25T14:15:04.891Z,949.96
2018-03-25T14:30:04.783Z,949.8
2018-03-25T14:45:04.800Z,949.61
2018-03-25T15:00:05.456Z,949.15
2018-03-25T15:15:04.604Z,949.42
2018-03-25T15:30:05.290Z,949.58
2018-03-25T15:45:05.232Z,949.75
2018-03-25T16:00:04.930Z,950.15
2018-03-25T16:15:05.644Z,950.45
2018-03-25T16:30:04.832Z,950.91
2018-03-25T16:45:04.701Z,951
2018-03-25T17:00:04.651Z,951.7
2018-03-25T17:15:04.644Z,952.44
2018-03-25T17:30:04.322Z,953.44
2018-03-25T17:45:04.815Z,953.96
2018-03-25T18:00:04.791Z,954.81
2018-03-25T18:15:04.751Z,955.16
2018-03-25T18:30:04.894Z,955.62
2018-03-25T18:45:04.841Z,949.03
2018-03-25T19:00:04.800Z,949.43
2018-03-25T19:15:04.759Z,949.51
2018-03-25T19:30:04.515Z,949.86
2018-03-25T19:45:04.446Z,950.03
2018-03-25T20:00:04.948Z,950.59
2018-03-25T20:15:04.388Z,950.78
2018-03-25T20:30:04.692Z,950.89
2018-03-25T20:45:05.118Z,951.08
2018-03-25T21:00:04.570Z,951.37
2018-03-25T21:15:04.806Z,951.89
2018-03-25T21:30:04.646Z,952.1
2018-03-25T21:45:05.037Z,952.67
2018-03-25T22:00:04.549Z,952.99
2018-03-25T22:15:04.445Z,953.21
2018-03-25T22:30:05.146Z,954.23
2018-03-25T22:45:04.621Z,954.4
2018-03-25T23:00:04.673Z,954.5
2018-03-25T23:15:04.639Z,954.5
2018-03-25T23:30:04.815Z,954.53
2018-03-25T23:45:05.251Z,955.1
